sensor_id;sensor_type;location;lat;lon;timestamp;pressure;altitude;pressure_sealevel;temperature
25985;BMP280;66753;53.848;10.658;2024-03-08T00:08:21;102476.13;;;2.39
25985;BMP280;66753;53.848;10.658;2024-03-08T00:23:22;102449.97;;;2.28
25985;BMP280;66753;53.848;10.658;2024-03-08T00:38:23;102457.44;;;2.19
25985;BMP280;66753;53.848;10.658;2024-03-08T00:53:24;102442.97;;;2.05
25985;BMP280;66753;53.848;10.658;2024-03-08T01:08:25;102433.06;;;1.96
25985;BMP280;66753;53.848;10.658;2024-03-08T01:23:28;102417.66;;;1.83
25985;BMP280;66753;53.848;10.658;2024-03-08T01:38:30;102393.66;;;1.74
25985;BMP280;66753;53.848;10.658;2024-03-08T01:53:31;102378.66;;;1.70
25985;BMP280;66753;53.848;10.658;2024-03-08T02:08:32;102370.03;;;1.69
25985;BMP280;66753;53.848;10.658;2024-03-08T02:23:36;102360.03;;;1.66
25985;BMP280;66753;53.848;10.658;2024-03-08T02:38:38;102350.50;;;1.60
25985;BMP280;66753;53.848;10.658;2024-03-08T02:53:41;102336.50;;;1.54
25985;BMP280;66753;53.848;10.658;2024-03-08T03:08:43;102338.22;;;1.49
25985;BMP280;66753;53.848;10.658;2024-03-08T03:23:46;102336.94;;;1.40
25985;BMP280;66753;53.848;10.658;2024-03-08T03:38:48;102330.50;;;1.31
25985;BMP280;66753;53.848;10.658;2024-03-08T03:53:52;102330.25;;;1.21
25985;BMP280;66753;53.848;10.658;2024-03-08T04:08:54;102323.13;;;1.28
25985;BMP280;66753;53.848;10.658;2024-03-08T04:23:55;102321.31;;;1.28
25985;BMP280;66753;53.848;10.658;2024-03-08T04:38:57;102317.31;;;1.26
25985;BMP280;66753;53.848;10.658;2024-03-08T04:53:58;102308.22;;;1.05
25985;BMP280;66753;53.848;10.658;2024-03-08T05:09:00;102310.13;;;1.10
25985;BMP280;66753;53.848;10.658;2024-03-08T05:24:02;102317.00;;;1.22
25985;BMP280;66753;53.848;10.658;2024-03-08T05:39:05;102298.56;;;1.06
25985;BMP280;66753;53.848;10.658;2024-03-08T05:54:07;102310.06;;;1.28
25985;BMP280;66753;53.848;10.658;2024-03-08T06:09:12;102307.22;;;1.29
25985;BMP280;66753;53.848;10.658;2024-03-08T06:24:17;102309.25;;;1.39
25985;BMP280;66753;53.848;10.658;2024-03-08T06:39:19;102310.28;;;1.38
25985;BMP280;66753;53.848;10.658;2024-03-08T06:54:20;102307.41;;;1.62
25985;BMP280;66753;53.848;10.658;2024-03-08T07:09:26;102304.88;;;1.91
25985;BMP280;66753;53.848;10.658;2024-03-08T07:24:27;102309.81;;;2.15
25985;BMP280;66753;53.848;10.658;2024-03-08T07:39:40;102310.72;;;2.21
25985;BMP280;66753;53.848;10.658;2024-03-08T07:54:42;102309.97;;;2.53
25985;BMP280;66753;53.848;10.658;2024-03-08T08:09:45;102304.00;;;2.41
25985;BMP280;66753;53.848;10.658;2024-03-08T08:24:47;102323.97;;;2.92
25985;BMP280;66753;53.848;10.658;2024-03-08T08:39:48;102314.44;;;3.79
25985;BMP280;66753;53.848;10.658;2024-03-08T08:54:52;102293.78;;;3.61
25985;BMP280;66753;53.848;10.658;2024-03-08T09:09:54;102283.69;;;3.96
25985;BMP280;66753;53.848;10.658;2024-03-08T09:24:58;102291.00;;;5.25
25985;BMP280;66753;53.848;10.658;2024-03-08T09:40:00;102255.44;;;5.84
25985;BMP280;66753;53.848;10.658;2024-03-08T09:55:06;102221.53;;;5.93
25985;BMP280;66753;53.848;10.658;2024-03-08T10:10:08;102218.44;;;7.04
25985;BMP280;66753;53.848;10.658;2024-03-08T10:25:13;102182.78;;;7.60
25985;BMP280;66753;53.848;10.658;2024-03-08T10:40:19;102160.69;;;8.13
25985;BMP280;66753;53.848;10.658;2024-03-08T10:55:22;102120.13;;;8.51
25985;BMP280;66753;53.848;10.658;2024-03-08T11:10:26;102095.75;;;8.91
25985;BMP280;66753;53.848;10.658;2024-03-08T11:25:38;102055.88;;;9.39
25985;BMP280;66753;53.848;10.658;2024-03-08T11:40:46;102017.94;;;9.84
25985;BMP280;66753;53.848;10.658;2024-03-08T11:55:50;101973.22;;;9.96
25985;BMP280;66753;53.848;10.658;2024-03-08T12:10:51;101954.81;;;10.26
25985;BMP280;66753;53.848;10.658;2024-03-08T12:25:53;101915.69;;;10.54
25985;BMP280;66753;53.848;10.658;2024-03-08T12:40:58;101888.63;;;10.96
25985;BMP280;66753;53.848;10.658;2024-03-08T12:56:00;101870.63;;;11.32
25985;BMP280;66753;53.848;10.658;2024-03-08T13:11:02;101835.75;;;11.25
25985;BMP280;66753;53.848;10.658;2024-03-08T13:26:04;101810.31;;;11.41
25985;BMP280;66753;53.848;10.658;2024-03-08T13:41:05;101802.22;;;11.46
25985;BMP280;66753;53.848;10.658;2024-03-08T13:56:07;101773.78;;;11.55
25985;BMP280;66753;53.848;10.658;2024-03-08T14:11:11;101751.75;;;11.63
25985;BMP280;66753;53.848;10.658;2024-03-08T14:26:13;101700.19;;;11.47
25985;BMP280;66753;53.848;10.658;2024-03-08T14:41:16;101745.69;;;11.20
25985;BMP280;66753;53.848;10.658;2024-03-08T14:56:17;101759.34;;;9.79
25985;BMP280;66753;53.848;10.658;2024-03-08T15:11:18;101757.50;;;9.66
25985;BMP280;66753;53.848;10.658;2024-03-08T15:26:21;101740.66;;;9.40
25985;BMP280;66753;53.848;10.658;2024-03-08T15:41:22;101726.00;;;9.21
25985;BMP280;66753;53.848;10.658;2024-03-08T15:56:26;101714.78;;;9.02
25985;BMP280;66753;53.848;10.658;2024-03-08T16:11:27;101709.72;;;8.78
25985;BMP280;66753;53.848;10.658;2024-03-08T16:26:30;101712.75;;;8.44
25985;BMP280;66753;53.848;10.658;2024-03-08T16:41:35;101696.16;;;8.12
25985;BMP280;66753;53.848;10.658;2024-03-08T16:56:36;101701.06;;;7.54
25985;BMP280;66753;53.848;10.658;2024-03-08T17:11:39;101688.38;;;7.19
25985;BMP280;66753;53.848;10.658;2024-03-08T17:26:41;101673.59;;;6.76
25985;BMP280;66753;53.848;10.658;2024-03-08T17:41:42;101674.47;;;6.48
25985;BMP280;66753;53.848;10.658;2024-03-08T17:56:45;101666.25;;;6.26
25985;BMP280;66753;53.848;10.658;2024-03-08T18:11:46;101661.69;;;6.08
25985;BMP280;66753;53.848;10.658;2024-03-08T18:26:48;101651.56;;;5.92
25985;BMP280;66753;53.848;10.658;2024-03-08T18:41:50;101639.63;;;5.70
25985;BMP280;66753;53.848;10.658;2024-03-08T18:56:51;101633.72;;;5.50
25985;BMP280;66753;53.848;10.658;2024-03-08T19:11:55;101632.56;;;5.32
25985;BMP280;66753;53.848;10.658;2024-03-08T19:26:57;101622.91;;;5.18
25985;BMP280;66753;53.848;10.658;2024-03-08T19:41:58;101610.34;;;5.05
25985;BMP280;66753;53.848;10.658;2024-03-08T19:57:00;101595.94;;;4.97
25985;BMP280;66753;53.848;10.658;2024-03-08T20:12:07;101584.94;;;4.90
25985;BMP280;66753;53.848;10.658;2024-03-08T20:27:08;101576.56;;;4.83
25985;BMP280;66753;53.848;10.658;2024-03-08T20:42:10;101563.75;;;4.72
25985;BMP280;66753;53.848;10.658;2024-03-08T20:57:12;101542.81;;;4.57
25985;BMP280;66753;53.848;10.658;2024-03-08T21:12:14;101528.13;;;4.51
25985;BMP280;66753;53.848;10.658;2024-03-08T21:27:18;101503.22;;;4.48
25985;BMP280;66753;53.848;10.658;2024-03-08T21:42:22;101485.13;;;4.42
25985;BMP280;66753;53.848;10.658;2024-03-08T21:57:24;101467.59;;;4.32
25985;BMP280;66753;53.848;10.658;2024-03-08T22:12:27;101447.66;;;4.31
25985;BMP280;66753;53.848;10.658;2024-03-08T22:27:30;101431.16;;;4.26
25985;BMP280;66753;53.848;10.658;2024-03-08T22:42:32;101424.88;;;4.17
25985;BMP280;66753;53.848;10.658;2024-03-08T22:57:35;101400.81;;;4.05
25985;BMP280;66753;53.848;10.658;2024-03-08T23:12:41;101404.50;;;3.99
25985;BMP280;66753;53.848;10.658;2024-03-08T23:27:55;101378.84;;;3.81
25985;BMP280;66753;53.848;10.658;2024-03-08T23:42:57;101383.91;;;3.67
25985;BMP280;66753;53.848;10.658;2024-03-08T23:57:59;101361.63;;;3.60
